Time;durP1;ratioP1;P1;durP2;ratioP2;P2;SDS_P1;SDS_P2;PMS_P1;PMS_P2;Temp;Humidity;BMP_temperature;BMP_pressure;BME280_temperature;BME280_humidity;BME280_pressure;Samples;Min_cycle;Max_cycle;Signal;HPM_P1;HPM_P2
2023/02/26 00:02:26;;;;;;;;;;;;;;;19.75;25.49;96874.25;5049407;28;20413;-85
2023/02/26 00:04:52;;;;;;;;;;;;;;;19.33;26.53;96880.75;5043455;28;19917;-84
2023/02/26 00:07:18;;;;;;;;;;;;;;;17.54;28.48;96884.84;5048594;28;20308;-85
2023/02/26 00:09:44;;;;;;;;;;;;;;;18.45;27.39;96871.41;5038806;28;19927;-85
2023/02/26 00:12:10;;;;;;;;;;;;;;;19.28;26.39;96868.13;5047146;28;19924;-85
2023/02/26 00:14:36;;;;;;;;;;;;;;;18.52;27.16;96869.31;5052928;28;19920;-85
2023/02/26 00:17:20;;;;;;;;;;;;;;;18.20;27.42;96871.06;5049853;28;19924;-85
2023/02/26 00:19:46;;;;;;;;;;;;;;;19.16;25.93;96879.16;5051369;28;20282;-87
2023/02/26 00:22:12;;;;;;;;;;;;;;;19.14;26.45;96876.00;5042507;28;19966;-88
2023/02/26 00:24:38;;;;;;;;;;;;;;;18.10;27.23;96894.25;5042367;28;19925;-88
2023/02/26 00:27:04;;;;;;;;;;;;;;;18.59;26.90;96893.41;5053096;28;19921;-88
2023/02/26 00:29:30;;;;;;;;;;;;;;;18.86;26.56;96896.03;5054948;28;20271;-87
2023/02/26 00:31:56;;;;;;;;;;;;;;;19.59;25.57;96898.50;5050428;28;19920;-87
2023/02/26 00:34:22;;;;;;;;;;;;;;;19.23;25.79;96901.25;5050116;28;19925;-89
2023/02/26 00:36:51;;;;;;;;;;;;;;;18.32;27.25;96920.47;5049570;28;19921;-87
2023/02/26 00:39:23;;;;;;;;;;;;;;;18.79;26.56;96918.44;5048432;28;19925;-88
2023/02/26 00:41:49;;;;;;;;;;;;;;;18.51;26.75;96934.44;5046216;28;19963;-88
2023/02/26 00:44:16;;;;;;;;;;;;;;;18.00;27.96;96931.31;5041295;28;19974;-87
2023/02/26 00:46:52;;;;;;;;;;;;;;;18.59;27.02;96926.75;5038456;28;19925;-87
2023/02/26 00:49:24;;;;;;;;;;;;;;;19.65;25.26;96933.00;5049914;28;19928;-87
2023/02/26 00:52:02;;;;;;;;;;;;;;;19.63;25.41;96932.59;5048620;28;19925;-87
2023/02/26 00:54:29;;;;;;;;;;;;;;;19.35;25.47;96927.66;5051771;28;20417;-87
2023/02/26 00:56:56;;;;;;;;;;;;;;;18.57;27.07;96926.41;5045920;28;20436;-86
2023/02/26 00:59:23;;;;;;;;;;;;;;;19.41;25.60;96918.38;5043804;28;19925;-87
2023/02/26 01:01:50;;;;;;;;;;;;;;;19.46;25.58;96928.22;5048397;28;19928;-87
2023/02/26 01:04:18;;;;;;;;;;;;;;;20.36;24.30;96932.09;5044834;28;20294;-87
2023/02/26 01:06:49;;;;;;;;;;;;;;;19.02;26.26;96941.41;5047323;28;19932;-87
2023/02/26 01:09:24;;;;;;;;;;;;;;;19.76;25.13;96942.66;5045802;28;19924;-87
2023/02/26 01:11:51;;;;;;;;;;;;;;;20.60;24.33;96928.69;5046131;28;19925;-87
2023/02/26 01:17:26;;;;;;;;;;;;;;;19.49;25.46;96921.78;5040663;28;19932;-87
2023/02/26 01:19:53;;;;;;;;;;;;;;;18.75;26.40;96912.16;5042381;28;19928;-86
2023/02/26 01:22:35;;;;;;;;;;;;;;;19.02;26.21;96904.50;5040079;28;19928;-86
2023/02/26 01:25:22;;;;;;;;;;;;;;;18.16;27.13;96904.47;5048373;28;19917;-86
2023/02/26 01:27:48;;;;;;;;;;;;;;;17.82;28.02;96904.63;5049090;28;20444;-86
2023/02/26 01:30:14;;;;;;;;;;;;;;;16.54;30.07;96907.47;5049508;28;19983;-86
2023/02/26 01:32:43;;;;;;;;;;;;;;;16.11;30.63;96899.94;5052505;28;19928;-86
2023/02/26 01:35:18;;;;;;;;;;;;;;;14.88;32.86;96896.00;5050002;28;20002;-86
2023/02/26 01:37:47;;;;;;;;;;;;;;;16.20;30.75;96891.94;5048226;28;19952;-86
2023/02/26 01:40:13;;;;;;;;;;;;;;;17.22;28.67;96904.69;5051542;28;19921;-86
2023/02/26 01:42:42;;;;;;;;;;;;;;;16.76;29.92;96921.06;5042462;28;19964;-86
2023/02/26 01:45:17;;;;;;;;;;;;;;;18.42;26.97;96930.59;5051475;28;19963;-86
2023/02/26 01:47:49;;;;;;;;;;;;;;;18.29;27.14;96938.00;5046455;28;20416;-86
2023/02/26 01:50:17;;;;;;;;;;;;;;;19.22;25.58;96944.22;5034654;28;19913;-86
2023/02/26 01:52:46;;;;;;;;;;;;;;;18.79;26.21;96951.78;5035228;28;19967;-86
2023/02/26 01:55:13;;;;;;;;;;;;;;;19.83;24.75;96958.44;5037813;28;19923;-86
2023/02/26 01:57:39;;;;;;;;;;;;;;;20.11;24.54;96945.84;5035551;28;20271;-87
2023/02/26 02:00:05;;;;;;;;;;;;;;;20.85;23.54;96953.13;5047502;28;19928;-87
2023/02/26 02:02:31;;;;;;;;;;;;;;;20.66;23.94;96971.53;5047359;28;20003;-86
2023/02/26 02:05:01;;;;;;;;;;;;;;;20.52;23.96;96979.47;5049492;28;19979;-87
2023/02/26 02:07:28;;;;;;;;;;;;;;;20.91;23.36;96976.47;5051920;28;19925;-87
2023/02/26 02:09:54;;;;;;;;;;;;;;;21.23;23.36;96975.63;5053314;28;20328;-86
2023/02/26 02:12:28;;;;;;;;;;;;;;;21.15;23.16;96972.25;5042674;28;19928;-86
2023/02/26 02:15:12;;;;;;;;;;;;;;;19.61;25.11;96966.47;5045963;28;20119;-86
2023/02/26 02:17:59;;;;;;;;;;;;;;;20.54;24.05;96960.31;5042792;28;19924;-86
2023/02/26 02:20:43;;;;;;;;;;;;;;;21.16;23.17;96965.44;5042660;28;19921;-86
2023/02/26 02:23:24;;;;;;;;;;;;;;;21.08;22.96;96971.66;5051756;28;19921;-86
2023/02/26 02:25:56;;;;;;;;;;;;;;;20.19;24.23;96987.03;5040166;28;19921;-86
2023/02/26 02:28:41;;;;;;;;;;;;;;;20.29;24.29;96993.59;5049795;28;20370;-86
2023/02/26 02:31:07;;;;;;;;;;;;;;;20.43;24.50;97004.41;5038342;28;20385;-86
2023/02/26 02:33:51;;;;;;;;;;;;;;;20.15;24.39;97005.03;5043491;28;20434;-87
2023/02/26 02:36:30;;;;;;;;;;;;;;;19.79;24.69;97016.22;5043945;28;19936;-87
2023/02/26 02:38:58;;;;;;;;;;;;;;;19.57;25.34;97015.09;5044885;28;19927;-87
2023/02/26 02:41:28;;;;;;;;;;;;;;;20.08;24.49;97014.34;5042594;28;19924;-86
2023/02/26 02:43:58;;;;;;;;;;;;;;;19.59;25.09;97021.78;5056149;28;19925;-87
2023/02/26 02:46:27;;;;;;;;;;;;;;;19.86;24.59;97025.19;5046819;28;19921;-87
2023/02/26 02:48:58;;;;;;;;;;;;;;;17.88;27.21;97033.44;5046098;28;20035;-86
2023/02/26 02:51:27;;;;;;;;;;;;;;;17.87;27.74;97037.44;5040328;28;19931;-86
2023/02/26 02:53:58;;;;;;;;;;;;;;;17.90;27.08;97025.47;5041187;28;20474;-87
2023/02/26 02:56:29;;;;;;;;;;;;;;;18.37;26.97;97020.81;5044457;28;19916;-86
2023/02/26 02:59:15;;;;;;;;;;;;;;;18.24;27.16;97011.50;5048678;28;19921;-86
2023/02/26 03:01:43;;;;;;;;;;;;;;;18.16;26.86;96998.13;5048958;28;19921;-86
2023/02/26 03:04:11;;;;;;;;;;;;;;;17.27;28.76;96993.75;5051639;28;19928;-86
2023/02/26 03:06:37;;;;;;;;;;;;;;;16.83;29.15;96982.78;5051858;28;19928;-86
2023/02/26 03:09:05;;;;;;;;;;;;;;;17.63;27.78;96988.56;5041151;28;19921;-86
2023/02/26 03:11:31;;;;;;;;;;;;;;;17.93;27.37;96996.88;5042419;28;19917;-86
2023/02/26 03:13:58;;;;;;;;;;;;;;;18.60;26.82;96993.03;5040580;28;19970;-86
2023/02/26 03:16:45;;;;;;;;;;;;;;;18.40;26.16;96997.72;5041078;28;19921;-86
2023/02/26 03:19:29;;;;;;;;;;;;;;;17.97;26.91;97018.25;5043330;28;20034;-86
2023/02/26 03:22:06;;;;;;;;;;;;;;;17.97;26.74;97021.81;5050796;28;19921;-87
2023/02/26 03:24:48;;;;;;;;;;;;;;;17.15;27.58;97040.69;5041882;28;19936;-86
2023/02/26 03:27:20;;;;;;;;;;;;;;;18.13;26.18;97047.00;5039754;28;19929;-86
2023/02/26 03:29:52;;;;;;;;;;;;;;;18.16;26.66;97064.78;5054150;28;19928;-86
2023/02/26 03:32:30;;;;;;;;;;;;;;;18.42;26.17;97075.91;5041437;28;19925;-86
2023/02/26 03:35:03;;;;;;;;;;;;;;;18.98;25.52;97087.34;5038400;28;20430;-86
2023/02/26 03:37:36;;;;;;;;;;;;;;;19.62;24.68;97071.06;5051934;28;19920;-86
2023/02/26 03:40:06;;;;;;;;;;;;;;;19.69;24.71;97075.69;5050814;28;19921;-86
2023/02/26 03:42:40;;;;;;;;;;;;;;;19.04;25.67;97080.84;5043743;28;20813;-86
2023/02/26 03:45:09;;;;;;;;;;;;;;;18.31;26.37;97086.41;5049837;28;19924;-86
2023/02/26 03:47:37;;;;;;;;;;;;;;;19.66;24.93;97085.69;5040306;28;20008;-87
2023/02/26 03:50:03;;;;;;;;;;;;;;;19.11;25.44;97093.88;5041411;28;19921;-87
2023/02/26 03:52:32;;;;;;;;;;;;;;;19.72;24.71;97081.19;5045749;28;19921;-87
2023/02/26 03:55:19;;;;;;;;;;;;;;;19.51;24.93;97075.28;5033512;28;19928;-87
2023/02/26 03:57:46;;;;;;;;;;;;;;;18.77;25.99;97074.59;5055154;28;19921;-87
2023/02/26 04:00:13;;;;;;;;;;;;;;;19.28;24.57;97073.28;5042385;28;20063;-87
2023/02/26 04:03:00;;;;;;;;;;;;;;;19.04;25.41;97085.66;5045169;28;19928;-87
2023/02/26 04:05:32;;;;;;;;;;;;;;;19.72;24.54;97103.47;5050911;28;19953;-87
2023/02/26 04:07:58;;;;;;;;;;;;;;;20.12;24.23;97117.41;5052801;28;19932;-87
2023/02/26 04:10:29;;;;;;;;;;;;;;;21.04;22.92;97119.66;5049741;28;19929;-87
2023/02/26 04:12:57;;;;;;;;;;;;;;;20.97;22.93;97125.41;5053658;28;20003;-87
2023/02/26 04:15:23;;;;;;;;;;;;;;;20.68;23.02;97127.28;5052101;28;19929;-90
2023/02/26 04:17:49;;;;;;;;;;;;;;;20.51;23.55;97132.03;5042863;28;19925;-88
2023/02/26 04:20:15;;;;;;;;;;;;;;;20.94;23.01;97136.63;5048461;28;19932;-88
2023/02/26 04:22:41;;;;;;;;;;;;;;;20.67;22.96;97142.47;5055198;28;19991;-88
2023/02/26 04:25:08;;;;;;;;;;;;;;;20.28;23.14;97148.91;5051617;28;19925;-88
2023/02/26 04:27:34;;;;;;;;;;;;;;;20.71;23.10;97154.31;5054452;28;19928;-88
2023/02/26 04:30:00;;;;;;;;;;;;;;;21.06;22.34;97150.72;5054398;28;19916;-88
2023/02/26 04:32:26;;;;;;;;;;;;;;;20.02;23.04;97167.31;5051916;28;20019;-88
2023/02/26 04:34:52;;;;;;;;;;;;;;;20.34;23.16;97163.91;5055228;28;20309;-88
2023/02/26 04:37:18;;;;;;;;;;;;;;;19.51;23.68;97164.34;5042665;28;19925;-88
2023/02/26 04:39:44;;;;;;;;;;;;;;;18.56;24.79;97175.00;5053893;28;20000;-87
2023/02/26 04:42:10;;;;;;;;;;;;;;;19.25;23.94;97175.09;5051251;28;19929;-87
2023/02/26 04:44:36;;;;;;;;;;;;;;;19.74;22.59;97181.03;5039555;28;19948;-88
2023/02/26 04:47:02;;;;;;;;;;;;;;;19.92;22.58;97173.13;5049791;28;19968;-87
2023/02/26 04:49:28;;;;;;;;;;;;;;;16.55;27.84;97174.22;5051104;28;19925;-87
2023/02/26 04:51:54;;;;;;;;;;;;;;;16.88;27.00;97179.16;5047232;28;19925;-88
2023/02/26 04:54:20;;;;;;;;;;;;;;;17.25;26.21;97179.22;5040472;28;19966;-87
2023/02/26 04:56:46;;;;;;;;;;;;;;;16.42;27.31;97182.22;5052950;28;19973;-87
2023/02/26 04:59:12;;;;;;;;;;;;;;;16.02;28.34;97185.56;5052508;28;20392;-88
2023/02/26 05:01:38;;;;;;;;;;;;;;;17.12;25.98;97186.50;5047751;28;19920;-87
2023/02/26 05:04:04;;;;;;;;;;;;;;;18.14;24.31;97193.00;5049645;28;19921;-87
2023/02/26 05:06:30;;;;;;;;;;;;;;;15.88;27.56;97208.56;5050021;28;20007;-87
2023/02/26 05:08:56;;;;;;;;;;;;;;;15.09;28.67;97217.34;5042368;28;19921;-87
2023/02/26 05:11:22;;;;;;;;;;;;;;;14.68;29.16;97212.56;5043380;28;19921;-87
2023/02/26 05:13:48;;;;;;;;;;;;;;;14.36;29.48;97206.97;5049645;28;19921;-88
2023/02/26 05:16:14;;;;;;;;;;;;;;;15.43;28.04;97214.94;5053724;28;19964;-87
2023/02/26 05:18:40;;;;;;;;;;;;;;;13.60;29.49;97207.00;5048295;28;19987;-87
2023/02/26 05:21:06;;;;;;;;;;;;;;;13.70;30.83;97206.25;5049561;28;20024;-87
2023/02/26 05:23:32;;;;;;;;;;;;;;;13.58;31.44;97212.09;5046680;28;19921;-88
2023/02/26 05:25:58;;;;;;;;;;;;;;;14.39;29.78;97214.47;5046749;28;20370;-88
2023/02/26 05:28:25;;;;;;;;;;;;;;;13.77;30.63;97197.22;5041017;28;20332;-87
2023/02/26 05:30:51;;;;;;;;;;;;;;;13.82;30.50;97205.94;5051585;28;19962;-88
2023/02/26 05:33:17;;;;;;;;;;;;;;;14.29;29.85;97196.66;5036534;28;19937;-88
2023/02/26 05:35:44;;;;;;;;;;;;;;;15.77;27.66;97193.97;5045798;28;19921;-88
2023/02/26 05:38:11;;;;;;;;;;;;;;;16.42;25.61;97209.91;5050648;28;19916;-88
2023/02/26 05:40:37;;;;;;;;;;;;;;;15.73;27.55;97233.88;5049330;28;19925;-88
2023/02/26 05:43:03;;;;;;;;;;;;;;;15.49;27.40;97235.53;5050223;28;20301;-88
2023/02/26 05:45:29;;;;;;;;;;;;;;;15.01;28.06;97257.19;5051051;28;19928;-88
2023/02/26 05:47:55;;;;;;;;;;;;;;;15.29;26.43;97261.97;5049999;28;19925;-88
2023/02/26 05:50:21;;;;;;;;;;;;;;;16.74;24.73;97269.91;5053662;28;19921;-88
2023/02/26 05:52:47;;;;;;;;;;;;;;;17.60;24.19;97277.25;5050188;28;19973;-89
2023/02/26 05:55:13;;;;;;;;;;;;;;;17.55;23.60;97277.72;5050498;28;20413;-89
2023/02/26 05:57:39;;;;;;;;;;;;;;;17.25;24.27;97294.94;5049716;28;20414;-88
2023/02/26 06:00:06;;;;;;;;;;;;;;;15.33;27.00;97303.44;5048758;28;19928;-88
2023/02/26 06:02:32;;;;;;;;;;;;;;;18.50;23.43;97308.13;5043375;28;19921;-89
2023/02/26 06:04:58;;;;;;;;;;;;;;;19.97;21.82;97303.56;5038662;28;20023;-89
2023/02/26 06:07:24;;;;;;;;;;;;;;;20.68;20.67;97306.59;5037826;28;19953;-89
2023/02/26 06:09:50;;;;;;;;;;;;;;;20.52;20.79;97311.31;5042129;28;19953;-88
2023/02/26 06:12:16;;;;;;;;;;;;;;;20.48;21.17;97316.97;5050019;28;20434;-89
2023/02/26 06:14:42;;;;;;;;;;;;;;;20.29;21.16;97334.44;5043652;28;19921;-89
2023/02/26 06:17:08;;;;;;;;;;;;;;;18.80;22.81;97334.34;5046085;28;19951;-89
2023/02/26 06:19:34;;;;;;;;;;;;;;;19.03;22.66;97338.03;5049157;28;20359;-89
2023/02/26 06:22:00;;;;;;;;;;;;;;;18.96;23.09;97348.44;5036767;28;20390;-89
2023/02/26 06:24:26;;;;;;;;;;;;;;;18.74;23.71;97353.47;5042384;28;19924;-89
2023/02/26 06:26:52;;;;;;;;;;;;;;;18.81;23.29;97352.63;5048517;28;19927;-89
2023/02/26 06:29:19;;;;;;;;;;;;;;;18.33;23.99;97353.53;5050055;28;20357;-89
2023/02/26 06:31:46;;;;;;;;;;;;;;;17.58;25.55;97360.94;5051224;28;20333;-88
2023/02/26 06:34:12;;;;;;;;;;;;;;;18.52;23.53;97363.28;5045762;28;19921;-89
2023/02/26 06:36:38;;;;;;;;;;;;;;;18.96;23.25;97367.91;5040287;28;19960;-89
2023/02/26 06:39:04;;;;;;;;;;;;;;;17.78;25.11;97366.75;5036795;28;19933;-89
2023/02/26 06:41:30;;;;;;;;;;;;;;;18.44;23.95;97365.31;5050547;28;19917;-89
2023/02/26 06:43:56;;;;;;;;;;;;;;;18.32;23.72;97363.06;5044811;28;19928;-89
2023/02/26 06:46:22;;;;;;;;;;;;;;;17.61;24.74;97357.34;5051641;28;19920;-88
2023/02/26 06:48:48;;;;;;;;;;;;;;;17.57;25.25;97361.34;5041026;28;19925;-89
2023/02/26 06:51:14;;;;;;;;;;;;;;;16.77;26.11;97363.38;5042219;28;19932;-88
2023/02/26 06:53:40;;;;;;;;;;;;;;;17.66;25.30;97367.22;5039392;28;19921;-88
2023/02/26 06:56:06;;;;;;;;;;;;;;;16.75;26.56;97368.53;5039567;28;20394;-88
2023/02/26 06:58:33;;;;;;;;;;;;;;;18.01;24.44;97371.72;5038739;28;19921;-88
2023/02/26 07:00:59;;;;;;;;;;;;;;;19.18;23.01;97372.00;5039822;28;19925;-88
2023/02/26 07:03:25;;;;;;;;;;;;;;;18.73;23.56;97373.38;5037338;28;19963;-88
2023/02/26 07:05:51;;;;;;;;;;;;;;;19.07;23.14;97377.69;5037498;28;19921;-89
2023/02/26 07:08:17;;;;;;;;;;;;;;;19.07;23.10;97376.91;5042570;28;20632;-89
2023/02/26 07:10:46;;;;;;;;;;;;;;;17.36;24.90;97380.91;5041001;28;20288;-88
2023/02/26 07:13:12;;;;;;;;;;;;;;;16.57;26.40;97399.06;5039164;28;19955;-88
2023/02/26 07:15:38;;;;;;;;;;;;;;;15.79;26.85;97395.59;5041966;28;19925;-88
2023/02/26 07:18:04;;;;;;;;;;;;;;;15.00;28.93;97393.03;5045658;28;19925;-87
2023/02/26 07:20:31;;;;;;;;;;;;;;;15.81;26.92;97405.06;5037581;28;19925;-88
2023/02/26 07:22:57;;;;;;;;;;;;;;;15.53;26.37;97410.56;5040598;28;20402;-88
2023/02/26 07:25:24;;;;;;;;;;;;;;;14.21;28.82;97409.59;5043396;28;19921;-88
2023/02/26 07:27:50;;;;;;;;;;;;;;;14.84;28.68;97400.88;5039334;28;20337;-88
2023/02/26 07:30:16;;;;;;;;;;;;;;;16.12;25.21;97411.00;5037619;28;19921;-88
2023/02/26 07:32:42;;;;;;;;;;;;;;;16.22;25.77;97430.34;5041470;28;19927;-88
2023/02/26 07:35:09;;;;;;;;;;;;;;;14.77;27.92;97425.72;5037930;28;20658;-88
2023/02/26 07:37:35;;;;;;;;;;;;;;;16.75;25.99;97429.50;5042313;28;20298;-89
2023/02/26 07:40:02;;;;;;;;;;;;;;;18.01;23.93;97419.72;5036461;28;19932;-90
2023/02/26 07:42:28;;;;;;;;;;;;;;;17.86;23.16;97432.13;5040918;28;19921;-89
2023/02/26 07:44:54;;;;;;;;;;;;;;;16.80;25.96;97454.84;5042523;28;19943;-87
2023/02/26 07:47:20;;;;;;;;;;;;;;;18.92;22.85;97443.06;5043983;28;19931;-88
2023/02/26 07:49:46;;;;;;;;;;;;;;;18.48;23.78;97449.47;5038838;28;19921;-88
2023/02/26 07:52:12;;;;;;;;;;;;;;;17.49;23.87;97463.25;5035600;28;20443;-87
2023/02/26 07:54:38;;;;;;;;;;;;;;;17.53;24.43;97477.13;5038677;28;20393;-88
2023/02/26 07:57:05;;;;;;;;;;;;;;;15.17;28.07;97478.78;5038116;28;19920;-88
2023/02/26 07:59:31;;;;;;;;;;;;;;;16.88;25.56;97478.56;5039999;28;19927;-88
2023/02/26 08:01:57;;;;;;;;;;;;;;;18.20;24.16;97468.38;5044270;28;20306;-87
2023/02/26 08:04:23;;;;;;;;;;;;;;;19.69;22.39;97485.06;5038463;28;19967;-89
2023/02/26 08:06:49;;;;;;;;;;;;;;;20.39;21.31;97486.03;5037642;28;19947;-92
2023/02/26 08:09:15;;;;;;;;;;;;;;;20.30;22.00;97485.78;5044315;28;19979;-87
2023/02/26 08:11:42;;;;;;;;;;;;;;;18.72;24.78;97492.13;5049556;28;19938;-86
2023/02/26 08:14:09;;;;;;;;;;;;;;;18.85;23.04;97487.66;5047993;28;19924;-88
2023/02/26 08:16:35;;;;;;;;;;;;;;;17.29;26.14;97495.47;5045306;28;19929;-85
2023/02/26 08:19:01;;;;;;;;;;;;;;;18.93;23.21;97482.78;5050377;28;20337;-85
2023/02/26 08:21:27;;;;;;;;;;;;;;;18.29;24.84;97480.59;5047248;28;19968;-85
2023/02/26 08:23:53;;;;;;;;;;;;;;;17.00;26.26;97503.09;5045121;28;19921;-86
2023/02/26 08:26:20;;;;;;;;;;;;;;;14.99;29.00;97508.34;5036026;28;19979;-85
2023/02/26 08:28:47;;;;;;;;;;;;;;;14.57;28.13;97515.56;5040702;28;19929;-85
2023/02/26 08:31:13;;;;;;;;;;;;;;;11.94;30.88;97526.47;5047159;28;20007;-85
2023/02/26 08:33:39;;;;;;;;;;;;;;;12.32;31.88;97529.06;5050907;28;20385;-88
2023/02/26 08:36:06;;;;;;;;;;;;;;;11.51;32.08;97522.13;5045426;28;20302;-85
2023/02/26 08:38:32;;;;;;;;;;;;;;;10.31;35.47;97527.81;5047905;28;20287;-84
2023/02/26 08:40:58;;;;;;;;;;;;;;;10.82;35.29;97536.00;5042831;28;19917;-84
2023/02/26 08:43:25;;;;;;;;;;;;;;;10.45;35.42;97535.56;5042668;28;19968;-84
2023/02/26 08:45:51;;;;;;;;;;;;;;;10.61;36.35;97541.81;5036679;28;20382;-85
2023/02/26 08:48:17;;;;;;;;;;;;;;;10.99;34.83;97539.13;5044392;28;19936;-85
2023/02/26 08:50:43;;;;;;;;;;;;;;;13.54;30.15;97539.44;5047035;28;20290;-84
2023/02/26 08:53:09;;;;;;;;;;;;;;;14.68;28.90;97542.09;5048070;28;20385;-85
2023/02/26 08:55:35;;;;;;;;;;;;;;;14.87;28.46;97541.81;5056218;28;19935;-84
2023/02/26 08:58:02;;;;;;;;;;;;;;;13.61;29.74;97556.06;5054747;28;19927;-85
2023/02/26 09:00:28;;;;;;;;;;;;;;;14.30;29.03;97550.88;5055973;28;19924;-85
2023/02/26 09:02:54;;;;;;;;;;;;;;;15.04;29.48;97562.47;5054358;28;19921;-85
2023/02/26 09:05:20;;;;;;;;;;;;;;;14.75;30.17;97566.22;5043367;28;19920;-86
2023/02/26 09:07:47;;;;;;;;;;;;;;;15.22;28.80;97580.72;5054665;28;19975;-86
2023/02/26 09:10:14;;;;;;;;;;;;;;;16.86;26.52;97577.19;5043332;28;19917;-87
2023/02/26 09:12:40;;;;;;;;;;;;;;;16.74;27.04;97597.00;5037357;28;19924;-87
2023/02/26 09:15:08;;;;;;;;;;;;;;;18.66;24.41;97593.91;5042556;28;19921;-87
2023/02/26 09:17:34;;;;;;;;;;;;;;;18.90;23.67;97597.66;5041283;28;20039;-86
2023/02/26 09:20:00;;;;;;;;;;;;;;;19.45;23.07;97592.78;5049838;28;20015;-86
2023/02/26 09:22:26;;;;;;;;;;;;;;;19.91;23.08;97600.56;5041111;28;19964;-86
2023/02/26 09:24:52;;;;;;;;;;;;;;;19.13;23.51;97600.63;5036413;28;20011;-86
2023/02/26 09:27:18;;;;;;;;;;;;;;;19.49;22.89;97599.06;5034397;28;19925;-86
2023/02/26 09:29:45;;;;;;;;;;;;;;;19.56;22.76;97600.97;5045769;28;19917;-89
2023/02/26 09:32:11;;;;;;;;;;;;;;;20.96;21.66;97601.00;5042346;28;19925;-86
2023/02/26 09:34:37;;;;;;;;;;;;;;;21.91;20.82;97601.28;5036921;28;20501;-88
2023/02/26 09:37:04;;;;;;;;;;;;;;;22.38;20.06;97597.03;5044747;28;19931;-89
2023/02/26 09:39:31;;;;;;;;;;;;;;;22.63;19.89;97604.91;5047111;28;19921;-91
2023/02/26 09:42:00;;;;;;;;;;;;;;;22.98;20.75;97606.84;5039710;28;19921;-90
2023/02/26 09:44:28;;;;;;;;;;;;;;;21.31;20.05;97605.19;5040257;28;19932;-88
2023/02/26 09:47:01;;;;;;;;;;;;;;;21.93;20.71;97598.84;5045262;28;19956;-88
2023/02/26 09:49:30;;;;;;;;;;;;;;;20.69;21.07;97608.63;5042497;28;19960;-90
2023/02/26 09:52:04;;;;;;;;;;;;;;;18.51;21.98;97607.09;5047869;28;20381;-90
2023/02/26 09:54:34;;;;;;;;;;;;;;;15.82;26.57;97622.53;5040326;28;19932;-88
2023/02/26 09:57:01;;;;;;;;;;;;;;;14.62;29.35;97623.75;5053107;28;19921;-89
2023/02/26 09:59:30;;;;;;;;;;;;;;;13.09;33.42;97634.16;5046719;28;20339;-88
2023/02/26 10:02:15;;;;;;;;;;;;;;;12.44;32.37;97638.19;5046924;28;20003;-90
2023/02/26 10:04:48;;;;;;;;;;;;;;;11.87;34.77;97652.88;5039922;28;19936;-90
2023/02/26 10:07:17;;;;;;;;;;;;;;;12.27;31.89;97655.19;5041864;28;19968;-90
2023/02/26 10:10:01;;;;;;;;;;;;;;;12.96;32.23;97659.50;5042703;28;19967;-89
2023/02/26 10:12:29;;;;;;;;;;;;;;;11.15;33.92;97654.47;5052082;28;20012;-90
2023/02/26 10:14:55;;;;;;;;;;;;;;;10.78;33.78;97644.97;5048444;28;19975;-90
2023/02/26 10:17:31;;;;;;;;;;;;;;;10.93;33.90;97652.38;5039132;28;19940;-89
2023/02/26 10:20:01;;;;;;;;;;;;;;;12.33;34.35;97650.97;5036846;28;19978;-89
2023/02/26 10:22:38;;;;;;;;;;;;;;;11.70;32.04;97653.31;5035127;28;20693;-89
2023/02/26 10:25:20;;;;;;;;;;;;;;;12.54;32.00;97650.53;5048930;28;20008;-89
2023/02/26 10:28:05;;;;;;;;;;;;;;;13.38;30.89;97645.56;5048330;28;19921;-90
2023/02/26 10:30:36;;;;;;;;;;;;;;;13.69;31.92;97647.97;5040771;28;19921;-89
2023/02/26 10:33:05;;;;;;;;;;;;;;;12.34;31.58;97649.81;5049059;28;20067;-89
2023/02/26 10:35:34;;;;;;;;;;;;;;;12.14;33.51;97651.00;5046443;28;20370;-90
2023/02/26 10:38:03;;;;;;;;;;;;;;;13.50;32.61;97651.66;5047997;28;19925;-90
2023/02/26 10:40:37;;;;;;;;;;;;;;;12.41;32.11;97661.75;5054952;28;19921;-91
2023/02/26 10:43:11;;;;;;;;;;;;;;;11.79;32.79;97668.44;5041973;28;20625;-87
2023/02/26 10:45:56;;;;;;;;;;;;;;;11.36;34.61;97679.66;5044437;28;20015;-91
2023/02/26 10:48:40;;;;;;;;;;;;;;;10.98;33.38;97683.09;5041079;28;19978;-89
2023/02/26 10:51:12;;;;;;;;;;;;;;;11.45;33.72;97687.69;5045649;28;19921;-89
2023/02/26 10:53:41;;;;;;;;;;;;;;;11.95;31.30;97690.34;5040491;28;20028;-90
2023/02/26 10:56:10;;;;;;;;;;;;;;;12.65;30.83;97693.63;5044499;28;19963;-89
2023/02/26 10:58:37;;;;;;;;;;;;;;;14.85;27.29;97689.84;5047445;28;19971;-89
2023/02/26 11:01:06;;;;;;;;;;;;;;;13.12;29.86;97701.50;5042056;28;19920;-89
2023/02/26 11:03:34;;;;;;;;;;;;;;;14.02;28.37;97700.41;5037933;28;20386;-89
2023/02/26 11:06:02;;;;;;;;;;;;;;;16.80;25.78;97690.47;5045020;28;19929;-88
2023/02/26 11:08:33;;;;;;;;;;;;;;;13.86;28.71;97705.34;5042296;28;19933;-89
2023/02/26 11:11:00;;;;;;;;;;;;;;;13.20;30.32;97705.19;5040155;28;20389;-89
2023/02/26 11:13:31;;;;;;;;;;;;;;;17.65;23.86;97694.00;5042101;28;19921;-89
2023/02/26 11:16:00;;;;;;;;;;;;;;;20.06;20.44;97693.94;5035570;28;20365;-89
2023/02/26 11:18:31;;;;;;;;;;;;;;;18.35;24.33;97704.06;5036377;28;19925;-88
2023/02/26 11:20:58;;;;;;;;;;;;;;;17.94;23.50;97709.41;5039800;28;20405;-89
2023/02/26 11:23:29;;;;;;;;;;;;;;;18.33;24.66;97709.25;5039942;28;19929;-91
2023/02/26 11:26:01;;;;;;;;;;;;;;;18.31;22.20;97705.28;5041707;28;20011;-93
2023/02/26 11:28:33;;;;;;;;;;;;;;;18.61;23.87;97705.53;5029838;28;19983;-93
2023/02/26 11:31:00;;;;;;;;;;;;;;;17.56;25.60;97709.47;5048094;28;20011;-90
2023/02/26 11:33:27;;;;;;;;;;;;;;;15.89;24.94;97719.44;5041632;28;19920;-93
2023/02/26 11:36:04;;;;;;;;;;;;;;;14.39;29.05;97723.34;5045756;28;20027;-94
2023/02/26 11:38:31;;;;;;;;;;;;;;;15.81;25.81;97720.59;5041022;28;19933;-96
2023/02/26 11:40:57;;;;;;;;;;;;;;;15.07;27.92;97727.56;5039936;28;19920;-95
2023/02/26 11:43:26;;;;;;;;;;;;;;;16.69;27.97;97722.13;5041054;28;20342;-95
2023/02/26 11:46:00;;;;;;;;;;;;;;;17.93;25.80;97721.69;5041907;28;20661;-90
2023/02/26 11:48:38;;;;;;;;;;;;;;;16.69;28.14;97722.13;5038353;28;19932;-94
2023/02/26 11:51:06;;;;;;;;;;;;;;;17.82;27.14;97728.47;5039767;28;19921;-92
2023/02/26 11:53:40;;;;;;;;;;;;;;;14.22;28.84;97734.16;5046784;28;19921;-92
2023/02/26 11:56:13;;;;;;;;;;;;;;;15.08;30.75;97737.44;5047830;28;19952;-91
2023/02/26 11:58:41;;;;;;;;;;;;;;;14.88;30.31;97741.59;5045550;28;19964;-93
2023/02/26 12:01:09;;;;;;;;;;;;;;;14.41;31.22;97740.34;5038242;28;19983;-93
2023/02/26 12:03:40;;;;;;;;;;;;;;;14.76;30.62;97750.16;5048897;28;19925;-93
2023/02/26 12:06:14;;;;;;;;;;;;;;;14.74;32.29;97756.09;5051297;28;19927;-95
2023/02/26 12:08:40;;;;;;;;;;;;;;;14.88;31.58;97758.19;5050042;28;20015;-95
2023/02/26 12:11:09;;;;;;;;;;;;;;;13.59;31.86;97769.97;5030431;28;19936;-94
2023/02/26 12:13:54;;;;;;;;;;;;;;;13.98;33.31;97782.34;5046822;28;20925;-93
2023/02/26 12:16:26;;;;;;;;;;;;;;;14.98;32.18;97787.91;5039726;28;19925;-92
2023/02/26 12:18:52;;;;;;;;;;;;;;;14.02;31.89;97794.25;5045887;28;19921;-91
2023/02/26 12:21:21;;;;;;;;;;;;;;;14.34;32.05;97800.22;5045273;28;19929;-92
2023/02/26 12:23:50;;;;;;;;;;;;;;;13.90;32.86;97811.03;5047829;28;20305;-92
2023/02/26 12:26:27;;;;;;;;;;;;;;;12.22;35.43;97804.09;5045829;28;19925;-91
2023/02/26 12:28:53;;;;;;;;;;;;;;;12.11;35.47;97814.88;5044883;28;19921;-92
2023/02/26 12:31:19;;;;;;;;;;;;;;;12.87;34.29;97814.03;5042770;28;19928;-91
2023/02/26 12:34:05;;;;;;;;;;;;;;;14.31;31.67;97807.28;5044065;28;19928;-92
2023/02/26 12:36:41;;;;;;;;;;;;;;;15.22;30.23;97823.28;5038456;28;20075;-92
2023/02/26 12:39:27;;;;;;;;;;;;;;;18.30;25.82;97804.53;5045885;28;19961;-92
2023/02/26 12:41:53;;;;;;;;;;;;;;;17.17;27.61;97824.03;5044994;28;19921;-92
2023/02/26 12:44:38;;;;;;;;;;;;;;;18.71;24.75;97826.25;5044851;28;19936;-92
2023/02/26 12:47:10;;;;;;;;;;;;;;;15.24;29.53;97820.91;5048745;28;19974;-92
2023/02/26 12:49:36;;;;;;;;;;;;;;;16.64;27.92;97819.53;5049344;28;19924;-90
2023/02/26 12:52:20;;;;;;;;;;;;;;;19.31;24.42;97824.72;5041373;28;19921;-94
2023/02/26 12:55:06;;;;;;;;;;;;;;;16.38;28.42;97828.91;5040358;28;20382;-92
2023/02/26 12:57:57;;;;;;;;;;;;;;;13.47;32.44;97839.91;5041713;28;20026;-92
2023/02/26 13:00:41;;;;;;;;;;;;;;;12.43;33.65;97854.09;5043755;28;19968;-89
2023/02/26 13:03:28;;;;;;;;;;;;;;;13.56;32.26;97859.75;5044954;28;19924;-90